ESNU/UME METAR and TAF weather

Enter ICAO airport designator
Station Type Date Time Source
ESNU METAR 2018/01/24 07:20 UTC NOAA

ESNU 240720Z 17012KT 7000 -SN VV005 00/00 Q0994 R14/75//31


Station Type Date Time Source
ESNU Decoded METAR 2018/01/24 07:20 UTC NOAA

Umea Flygplats, Sweden (ESNU) 63-48N 020-17E 14M
Jan 24, 2018 - 02:20 AM EST / 2018.01.24 0720 UTC
Wind: from the S (170 degrees) at 14 MPH (12 KT):0
Visibility: 4 mile(s):0
Sky conditions: obscured
Weather: light snow
Temperature: 32 F (0 C)
Windchill: 21 F (-6 C):1
Dew Point: 32 F (0 C)
Relative Humidity: 100%
Pressure (altimeter): 29.35 in. Hg (0994 hPa)
ob: ESNU 240720Z 17012KT 7000 -SN VV005 00/00 Q0994 R14/75//31
cycle: 7

Station Type Date Time Source
ESNU TAF 2017/11/01 15:33 UTC NOAA

TAF TAF ESNU 011430Z 0115/0224 13005KT 9999 OVC004
TEMPO 0115/0124 OVC008


Example: see airport list